Time;durP1;ratioP1;P1;durP2;ratioP2;P2;SDS_P1;SDS_P2;PMS_P1;PMS_P2;Temp;Humidity;BMP_temperature;BMP_pressure;BME280_temperature;BME280_humidity;BME280_pressure;Samples;Min_cycle;Max_cycle;Signal;HPM_P1;HPM_P2
2023/08/19 00:02:20;;;;;;;9.25;6.82;;;26.80;76.60;;;;;;6121272;28;80869;-62
2023/08/19 00:05:21;;;;;;;12.75;7.47;;;26.80;76.80;;;;;;6124526;28;80528;-62
2023/08/19 00:08:21;;;;;;;9.52;7.32;;;26.80;76.80;;;;;;6126448;28;80970;-63
2023/08/19 00:11:22;;;;;;;10.05;7.57;;;26.80;76.70;;;;;;6132746;28;80546;-62
2023/08/19 00:14:23;;;;;;;10.73;7.28;;;26.80;76.60;;;;;;6113091;28;80391;-63
2023/08/19 00:17:24;;;;;;;9.63;7.85;;;26.80;77.00;;;;;;6113498;28;80906;-63
2023/08/19 00:20:27;;;;;;;13.75;7.43;;;26.70;77.30;;;;;;6127746;28;80484;-59
2023/08/19 00:23:28;;;;;;;12.10;7.75;;;26.80;77.10;;;;;;6128264;28;80852;-61
2023/08/19 00:26:29;;;;;;;8.80;6.97;;;26.80;77.30;;;;;;6129988;28;80722;-60
2023/08/19 00:29:30;;;;;;;10.02;7.03;;;26.80;76.40;;;;;;6114529;28;80627;-61
2023/08/19 00:32:30;;;;;;;11.75;8.32;;;26.60;76.60;;;;;;6131287;28;80748;-62
2023/08/19 00:35:32;;;;;;;9.05;7.35;;;26.60;76.80;;;;;;6122916;28;83253;-61
2023/08/19 00:38:32;;;;;;;9.30;7.07;;;26.60;76.80;;;;;;6139006;28;83620;-61
2023/08/19 00:41:33;;;;;;;10.18;7.28;;;26.60;76.70;;;;;;6122541;28;80491;-62
2023/08/19 00:44:34;;;;;;;12.52;6.82;;;26.60;76.90;;;;;;6127845;28;83370;-59
2023/08/19 00:47:34;;;;;;;10.93;6.97;;;26.70;76.70;;;;;;6110773;28;83636;-60
2023/08/19 00:50:35;;;;;;;10.70;6.78;;;26.80;76.70;;;;;;6134082;28;83325;-62
2023/08/19 00:53:35;;;;;;;12.98;7.55;;;26.80;76.60;;;;;;6119910;28;82486;-61
2023/08/19 00:56:37;;;;;;;8.90;7.50;;;26.80;76.40;;;;;;6126745;28;80808;-61
2023/08/19 00:59:37;;;;;;;13.05;7.95;;;26.80;76.10;;;;;;6131604;28;82261;-63
2023/08/19 01:02:38;;;;;;;9.63;7.25;;;26.80;75.90;;;;;;6128189;28;80397;-62
2023/08/19 01:05:39;;;;;;;10.80;7.80;;;26.80;76.00;;;;;;6113065;28;87740;-62
2023/08/19 01:08:39;;;;;;;10.13;6.78;;;26.80;76.10;;;;;;6122990;28;80921;-62
2023/08/19 01:11:40;;;;;;;8.48;6.68;;;26.80;76.00;;;;;;6130194;28;83351;-60
2023/08/19 01:14:40;;;;;;;7.78;6.85;;;26.80;75.90;;;;;;6116516;28;80549;-62
2023/08/19 01:17:41;;;;;;;12.95;7.00;;;26.80;75.70;;;;;;6113814;28;82372;-61
2023/08/19 01:20:41;;;;;;;9.90;7.60;;;26.80;75.70;;;;;;6120289;28;81069;-60
2023/08/19 01:23:42;;;;;;;10.05;6.32;;;26.80;76.00;;;;;;6119950;28;81997;-62
2023/08/19 01:26:42;;;;;;;11.57;7.57;;;26.80;76.10;;;;;;6119546;28;80685;-61
2023/08/19 01:29:43;;;;;;;11.10;7.55;;;26.80;76.60;;;;;;6108326;28;80417;-61
2023/08/19 01:32:44;;;;;;;13.00;7.13;;;26.70;75.80;;;;;;6123759;28;80682;-73
2023/08/19 01:35:44;;;;;;;12.80;7.60;;;26.50;75.50;;;;;;6119844;28;81467;-71
2023/08/19 01:38:45;;;;;;;10.30;7.15;;;26.40;76.60;;;;;;6110014;28;83712;-71
2023/08/19 01:41:46;;;;;;;9.80;7.65;;;26.40;76.30;;;;;;6128308;28;81679;-71
2023/08/19 01:44:47;;;;;;;12.63;7.90;;;26.50;76.30;;;;;;6115110;28;83813;-72
2023/08/19 01:47:48;;;;;;;10.80;7.10;;;26.50;76.20;;;;;;6114563;28;82147;-71
2023/08/19 01:50:49;;;;;;;12.05;7.25;;;26.60;76.20;;;;;;6111023;28;82137;-60
2023/08/19 01:53:49;;;;;;;10.50;7.63;;;26.70;76.00;;;;;;6139028;28;83986;-60
2023/08/19 01:56:50;;;;;;;11.23;7.85;;;26.70;75.80;;;;;;6120372;28;81339;-61
2023/08/19 01:59:51;;;;;;;14.35;8.20;;;26.70;75.70;;;;;;6106109;28;82882;-61
2023/08/19 02:02:51;;;;;;;10.38;7.55;;;26.70;75.70;;;;;;6106428;28;80528;-60
2023/08/19 02:05:52;;;;;;;9.98;7.57;;;26.80;75.70;;;;;;6106513;28;80941;-62
2023/08/19 02:08:52;;;;;;;11.50;8.30;;;26.80;75.50;;;;;;6114972;28;83231;-62
2023/08/19 02:11:53;;;;;;;9.57;7.15;;;26.70;75.60;;;;;;6132177;28;83833;-62
2023/08/19 02:14:53;;;;;;;9.10;7.22;;;26.70;75.40;;;;;;6127546;28;83214;-60
2023/08/19 02:17:54;;;;;;;9.88;7.50;;;26.70;75.60;;;;;;6117863;28;83800;-61
2023/08/19 02:20:54;;;;;;;11.55;7.88;;;26.60;75.70;;;;;;6135184;28;81871;-61
2023/08/19 02:23:55;;;;;;;12.13;6.93;;;26.70;75.80;;;;;;6113229;28;80425;-61
2023/08/19 02:26:55;;;;;;;9.20;7.70;;;26.70;75.80;;;;;;6107363;28;80534;-60
2023/08/19 02:29:56;;;;;;;8.45;6.78;;;26.70;75.80;;;;;;6111820;28;81643;-61
2023/08/19 02:32:57;;;;;;;10.85;7.35;;;26.70;75.70;;;;;;6123887;28;81938;-59
2023/08/19 02:35:57;;;;;;;10.05;7.75;;;26.70;76.00;;;;;;6140094;28;84538;-62
2023/08/19 02:38:58;;;;;;;11.38;7.72;;;26.70;75.90;;;;;;6138969;28;83702;-61
2023/08/19 02:41:58;;;;;;;11.45;7.63;;;26.80;75.90;;;;;;6108306;28;80465;-60
2023/08/19 02:44:59;;;;;;;10.43;7.60;;;26.80;75.90;;;;;;6105275;28;80806;-65
2023/08/19 02:47:59;;;;;;;9.65;6.93;;;26.80;75.80;;;;;;6121400;28;82279;-65
2023/08/19 02:51:00;;;;;;;10.27;7.28;;;26.80;75.70;;;;;;6152197;28;83236;-66
2023/08/19 02:54:00;;;;;;;11.15;7.88;;;26.80;75.70;;;;;;6136706;28;80429;-71
2023/08/19 02:57:01;;;;;;;9.13;6.45;;;26.80;75.60;;;;;;6129483;28;80474;-67
2023/08/19 03:00:01;;;;;;;10.95;7.13;;;26.80;75.60;;;;;;6119958;28;80812;-68
2023/08/19 03:03:02;;;;;;;9.45;7.45;;;26.80;75.60;;;;;;6123099;28;80901;-60
2023/08/19 03:06:03;;;;;;;9.50;7.63;;;26.80;75.60;;;;;;6127991;28;81080;-60
2023/08/19 03:09:04;;;;;;;11.48;7.50;;;26.80;75.50;;;;;;6112214;28;80440;-60
2023/08/19 03:12:05;;;;;;;8.73;7.18;;;26.80;75.40;;;;;;6116572;28;83475;-62
2023/08/19 03:15:05;;;;;;;14.43;8.02;;;26.80;75.40;;;;;;6117703;28;80871;-60
2023/08/19 03:18:06;;;;;;;8.52;7.25;;;26.80;75.60;;;;;;6138326;28;81812;-60
2023/08/19 03:21:06;;;;;;;8.77;6.85;;;26.80;75.50;;;;;;6122829;28;83208;-71
2023/08/19 03:24:07;;;;;;;10.73;7.05;;;26.80;75.40;;;;;;6113357;28;80672;-70
2023/08/19 03:27:07;;;;;;;11.52;7.10;;;26.90;75.30;;;;;;6117308;28;80625;-70
2023/08/19 03:30:08;;;;;;;10.40;7.10;;;26.90;75.40;;;;;;6141783;28;83233;-73
2023/08/19 03:33:09;;;;;;;8.23;6.85;;;26.80;75.00;;;;;;6149186;28;81501;-72
2023/08/19 03:36:10;;;;;;;9.68;7.63;;;26.80;75.10;;;;;;6134974;28;81820;-70
2023/08/19 03:39:11;;;;;;;11.57;7.20;;;26.80;75.30;;;;;;6125758;28;82288;-70
2023/08/19 03:42:11;;;;;;;8.63;7.05;;;26.80;75.30;;;;;;6126510;28;80902;-69
2023/08/19 03:45:12;;;;;;;7.50;6.20;;;26.70;75.40;;;;;;6127248;28;80409;-69
2023/08/19 03:48:12;;;;;;;7.82;6.28;;;26.80;75.50;;;;;;6126266;28;80493;-68
2023/08/19 03:51:13;;;;;;;8.82;6.85;;;26.80;75.60;;;;;;6130986;28;81105;-68
2023/08/19 03:54:13;;;;;;;9.90;6.82;;;26.80;75.60;;;;;;6136749;28;83061;-67
2023/08/19 03:57:14;;;;;;;9.63;6.60;;;26.80;75.40;;;;;;6126102;28;82297;-71
2023/08/19 04:00:15;;;;;;;10.70;7.05;;;26.80;75.30;;;;;;6126792;28;83539;-71
2023/08/19 04:03:15;;;;;;;10.65;7.63;;;26.80;75.30;;;;;;6118398;28;80709;-72
2023/08/19 04:06:16;;;;;;;11.02;7.90;;;26.80;75.10;;;;;;6116548;28;81232;-68
2023/08/19 04:09:16;;;;;;;10.93;7.43;;;26.80;75.20;;;;;;6116396;28;80246;-70
2023/08/19 04:12:17;;;;;;;12.20;7.57;;;26.70;75.30;;;;;;6115643;28;80229;-68
2023/08/19 04:15:17;;;;;;;10.30;7.00;;;26.70;75.60;;;;;;6108070;28;84180;-69
2023/08/19 04:18:18;;;;;;;8.57;7.28;;;26.60;75.70;;;;;;6099537;28;83374;-68
2023/08/19 04:21:20;;;;;;;9.18;7.15;;;26.70;75.80;;;;;;6118690;28;83756;-68
2023/08/19 04:24:20;;;;;;;12.70;7.13;;;26.70;75.50;;;;;;6103830;28;80231;-66
2023/08/19 04:27:22;;;;;;;13.38;7.25;;;26.70;75.70;;;;;;6104596;28;81648;-68
2023/08/19 04:30:23;;;;;;;8.93;7.18;;;26.70;75.70;;;;;;6106927;28;81834;-65
2023/08/19 04:33:24;;;;;;;8.85;7.43;;;26.70;75.40;;;;;;6127626;28;82039;-68
2023/08/19 04:36:25;;;;;;;8.30;7.20;;;26.70;75.60;;;;;;6128162;28;83455;-61
2023/08/19 04:39:26;;;;;;;9.40;7.93;;;26.60;75.70;;;;;;6140954;28;81063;-60
2023/08/19 04:42:30;;;;;;;9.80;7.03;;;26.60;75.90;;;;;;6102216;28;81453;-61
2023/08/19 04:45:31;;;;;;;9.10;7.50;;;26.60;76.30;;;;;;6103620;28;80546;-61
2023/08/19 04:48:32;;;;;;;9.13;7.07;;;26.60;76.30;;;;;;6125389;28;83816;-62
2023/08/19 04:51:33;;;;;;;10.32;6.90;;;26.60;76.10;;;;;;6154723;28;83408;-62
2023/08/19 04:54:34;;;;;;;12.48;7.55;;;26.60;76.00;;;;;;6157221;28;83177;-58
2023/08/19 04:57:34;;;;;;;11.18;8.02;;;26.60;76.30;;;;;;6119500;28;81267;-56
2023/08/19 05:00:36;;;;;;;15.95;8.38;;;26.50;76.30;;;;;;6120209;28;83081;-58
2023/08/19 05:03:36;;;;;;;9.98;7.65;;;26.50;76.30;;;;;;6140494;28;80326;-58
2023/08/19 05:06:38;;;;;;;10.57;7.32;;;26.50;76.50;;;;;;6138413;28;83444;-58
2023/08/19 05:09:38;;;;;;;10.23;7.60;;;26.60;76.60;;;;;;6124609;28;82336;-56
2023/08/19 05:12:40;;;;;;;15.10;8.00;;;26.60;76.70;;;;;;6126804;28;90961;-62
2023/08/19 05:15:40;;;;;;;13.13;8.27;;;26.70;76.60;;;;;;6132495;28;80261;-61
2023/08/19 05:18:41;;;;;;;12.93;7.47;;;26.70;76.50;;;;;;6123908;28;81144;-61
2023/08/19 05:21:41;;;;;;;9.93;7.35;;;26.70;76.40;;;;;;6116849;28;81744;-64
2023/08/19 05:24:42;;;;;;;10.73;9.18;;;26.80;76.50;;;;;;6147104;28;81828;-64
2023/08/19 05:27:43;;;;;;;11.07;9.02;;;26.80;76.40;;;;;;6119946;28;80262;-62
2023/08/19 05:30:44;;;;;;;11.90;9.18;;;26.70;76.60;;;;;;6125133;28;80419;-60
2023/08/19 05:33:44;;;;;;;11.85;9.75;;;26.60;76.90;;;;;;6125524;28;82007;-60
2023/08/19 05:36:45;;;;;;;13.27;10.10;;;26.50;77.10;;;;;;6120644;28;80629;-59
2023/08/19 05:39:46;;;;;;;15.65;11.00;;;26.50;77.50;;;;;;6117718;28;84054;-59
2023/08/19 05:42:46;;;;;;;17.80;11.27;;;26.40;77.90;;;;;;6129508;28;83303;-57
2023/08/19 05:45:47;;;;;;;15.45;10.80;;;26.40;78.20;;;;;;6122086;28;85052;-58
2023/08/19 05:48:47;;;;;;;16.08;11.63;;;26.40;78.80;;;;;;6124396;28;83361;-64
2023/08/19 05:51:48;;;;;;;16.23;11.52;;;26.40;78.50;;;;;;6125295;28;83128;-64
2023/08/19 05:54:48;;;;;;;14.20;11.38;;;26.40;78.80;;;;;;6130777;28;82967;-64
2023/08/19 05:57:49;;;;;;;19.25;10.88;;;26.40;79.40;;;;;;6118149;28;83241;-59
2023/08/19 06:00:49;;;;;;;17.90;11.10;;;26.50;79.60;;;;;;6118315;28;82995;-63
2023/08/19 06:03:50;;;;;;;15.45;11.25;;;26.50;80.00;;;;;;6126668;28;83348;-64
2023/08/19 06:06:50;;;;;;;16.25;10.93;;;26.40;79.80;;;;;;6117957;28;85418;-67
2023/08/19 06:09:51;;;;;;;16.10;10.50;;;26.40;80.00;;;;;;6123925;28;83511;-71
2023/08/19 06:12:51;;;;;;;15.50;10.32;;;26.50;81.80;;;;;;6131113;28;84057;-64
2023/08/19 06:15:52;;;;;;;13.57;10.63;;;26.50;80.10;;;;;;6105515;28;84137;-62
2023/08/19 06:18:53;;;;;;;14.45;8.98;;;26.60;79.80;;;;;;6112551;28;84219;-62
2023/08/19 06:21:53;;;;;;;10.30;8.82;;;26.70;79.90;;;;;;6125694;28;82886;-62
2023/08/19 06:24:54;;;;;;;13.73;9.27;;;26.80;79.20;;;;;;6103965;28;81429;-65
2023/08/19 06:27:54;;;;;;;11.38;9.18;;;26.80;79.20;;;;;;6114054;28;82108;-65
2023/08/19 06:30:56;;;;;;;15.90;8.50;;;26.80;79.30;;;;;;6128074;28;81650;-65
2023/08/19 06:33:57;;;;;;;12.88;8.15;;;26.80;79.00;;;;;;6130207;28;83219;-65
2023/08/19 06:36:58;;;;;;;18.65;8.75;;;26.80;78.60;;;;;;6130805;28;81880;-62
2023/08/19 06:39:58;;;;;;;11.73;8.40;;;26.90;78.50;;;;;;6128898;28;81654;-66
2023/08/19 06:42:59;;;;;;;10.52;8.15;;;26.90;78.60;;;;;;6106666;28;81696;-56
2023/08/19 06:45:59;;;;;;;10.73;7.70;;;26.90;78.50;;;;;;6114892;28;81813;-57
2023/08/19 06:49:00;;;;;;;10.18;7.70;;;26.90;78.20;;;;;;6132281;28;81268;-57
2023/08/19 06:52:00;;;;;;;10.75;7.72;;;26.90;77.90;;;;;;6127868;28;81807;-58
2023/08/19 06:55:01;;;;;;;12.40;7.97;;;27.00;78.50;;;;;;6120330;28;82426;-57
2023/08/19 06:58:01;;;;;;;17.58;7.30;;;27.00;78.50;;;;;;6131983;28;82965;-58
2023/08/19 07:01:03;;;;;;;13.32;8.38;;;27.00;77.80;;;;;;6125491;28;81093;-58
2023/08/19 07:04:03;;;;;;;9.48;7.68;;;26.90;77.60;;;;;;6129690;28;82061;-68
2023/08/19 07:07:04;;;;;;;9.80;7.32;;;26.90;78.10;;;;;;6133084;28;81542;-69
2023/08/19 07:10:05;;;;;;;13.45;6.88;;;27.00;78.40;;;;;;6126829;28;81395;-73
2023/08/19 07:13:05;;;;;;;14.45;7.28;;;27.00;77.80;;;;;;6124984;28;83855;-69
2023/08/19 07:16:06;;;;;;;13.23;7.50;;;27.00;77.70;;;;;;6161470;28;81556;-70
2023/08/19 07:19:06;;;;;;;11.57;7.43;;;27.00;79.00;;;;;;6152328;28;80715;-66
2023/08/19 07:22:07;;;;;;;11.95;6.90;;;27.10;78.80;;;;;;6125312;28;82964;-58
2023/08/19 07:25:07;;;;;;;13.38;7.40;;;27.20;78.40;;;;;;6127814;28;83980;-58
2023/08/19 07:28:08;;;;;;;11.23;7.75;;;27.20;77.90;;;;;;6104917;28;83970;-55
2023/08/19 07:31:08;;;;;;;10.32;7.10;;;27.30;77.80;;;;;;6121685;28;83979;-58
2023/08/19 07:34:09;;;;;;;12.35;7.45;;;27.30;77.50;;;;;;6129120;28;80590;-55
2023/08/19 07:37:10;;;;;;;8.18;7.15;;;27.30;77.40;;;;;;6149399;28;85637;-60
2023/08/19 07:40:10;;;;;;;7.50;6.60;;;27.40;76.50;;;;;;6128063;28;81592;-58
2023/08/19 07:43:11;;;;;;;9.30;7.53;;;27.40;76.50;;;;;;6128255;28;81656;-56
2023/08/19 07:46:14;;;;;;;13.70;7.03;;;27.40;75.70;;;;;;6125971;28;80481;-55
2023/08/19 07:49:14;;;;;;;10.40;6.82;;;27.40;75.40;;;;;;6126422;28;81064;-56
2023/08/19 07:52:15;;;;;;;11.38;6.57;;;27.40;75.80;;;;;;6125371;28;81934;-59
2023/08/19 07:55:15;;;;;;;14.75;7.38;;;27.40;76.60;;;;;;6123201;28;80660;-58
2023/08/19 07:58:16;;;;;;;15.35;7.53;;;27.50;76.90;;;;;;6126609;28;80828;-65
2023/08/19 08:01:17;;;;;;;16.08;7.68;;;27.50;77.20;;;;;;6122261;28;80910;-65
2023/08/19 08:04:18;;;;;;;12.02;7.28;;;27.50;77.10;;;;;;6116144;28;80658;-64
2023/08/19 08:07:18;;;;;;;7.68;6.18;;;27.60;77.00;;;;;;6123880;28;81520;-65
2023/08/19 08:10:19;;;;;;;7.38;6.68;;;27.60;77.10;;;;;;6124056;28;80817;-64
2023/08/19 08:13:19;;;;;;;11.30;6.60;;;27.60;76.80;;;;;;6123683;28;81235;-65
2023/08/19 08:16:20;;;;;;;9.15;6.57;;;27.60;76.70;;;;;;6124639;28;80787;-58
2023/08/19 08:19:22;;;;;;;8.82;6.97;;;27.60;76.80;;;;;;6124158;28;80975;-57
2023/08/19 08:22:23;;;;;;;10.77;7.18;;;27.60;76.70;;;;;;6138081;28;81482;-55
2023/08/19 08:25:23;;;;;;;8.82;6.10;;;27.60;76.60;;;;;;6126852;28;82562;-56
2023/08/19 08:28:24;;;;;;;11.60;6.45;;;27.60;76.50;;;;;;6126738;28;81582;-56
2023/08/19 08:31:24;;;;;;;10.95;6.40;;;27.60;76.50;;;;;;6130034;28;80865;-56
2023/08/19 08:34:25;;;;;;;11.48;6.43;;;27.60;76.40;;;;;;6136443;28;81270;-64
2023/08/19 08:37:26;;;;;;;10.82;6.50;;;27.60;76.40;;;;;;6126948;28;81014;-64
2023/08/19 08:40:26;;;;;;;7.78;6.20;;;27.60;76.30;;;;;;6127512;28;80716;-65
2023/08/19 08:43:27;;;;;;;8.07;7.15;;;27.60;76.30;;;;;;6127200;28;81240;-64
2023/08/19 08:46:27;;;;;;;7.53;6.70;;;27.60;76.30;;;;;;6131012;28;80863;-64
2023/08/19 08:49:28;;;;;;;9.60;6.40;;;27.60;76.10;;;;;;6130420;28;82211;-65
2023/08/19 08:52:28;;;;;;;7.55;6.03;;;27.60;76.20;;;;;;6130019;28;81020;-57
2023/08/19 08:55:29;;;;;;;7.45;6.65;;;27.60;76.20;;;;;;6130956;28;81210;-56
2023/08/19 08:58:29;;;;;;;7.57;6.80;;;27.70;76.00;;;;;;6142996;28;81114;-57
2023/08/19 09:01:30;;;;;;;7.40;6.45;;;27.70;75.70;;;;;;6131268;28;81218;-57
2023/08/19 09:04:30;;;;;;;9.80;6.43;;;27.70;76.00;;;;;;6130465;28;82581;-57
2023/08/19 09:07:32;;;;;;;9.05;6.10;;;27.70;75.30;;;;;;6138482;28;81374;-57
2023/08/19 09:10:32;;;;;;;6.72;6.00;;;27.70;75.40;;;;;;6128712;28;81396;-56
2023/08/19 09:13:33;;;;;;;8.98;6.43;;;27.70;75.40;;;;;;6130471;28;80420;-56
2023/08/19 09:16:33;;;;;;;6.75;6.13;;;27.70;75.50;;;;;;6129294;28;80747;-56
2023/08/19 09:19:35;;;;;;;7.32;6.57;;;27.70;75.40;;;;;;6130559;28;80541;-55
2023/08/19 09:22:38;;;;;;;7.43;6.10;;;27.70;75.30;;;;;;6130148;28;80764;-54
2023/08/19 09:25:39;;;;;;;6.65;5.95;;;27.70;75.30;;;;;;6130250;28;80280;-58
2023/08/19 09:28:39;;;;;;;7.32;6.47;;;27.70;75.10;;;;;;6130517;28;82922;-58
2023/08/19 09:31:40;;;;;;;7.57;5.90;;;27.70;75.30;;;;;;6132651;28;80866;-57
2023/08/19 09:34:40;;;;;;;8.25;5.63;;;27.70;75.10;;;;;;6126448;28;80512;-58
2023/08/19 09:37:41;;;;;;;6.93;6.22;;;27.70;75.40;;;;;;6130157;28;81471;-58
2023/08/19 09:40:41;;;;;;;9.43;6.03;;;27.70;75.10;;;;;;6131689;28;80198;-58
2023/08/19 09:43:42;;;;;;;8.65;7.13;;;27.70;75.00;;;;;;6130501;28;80388;-59
2023/08/19 09:46:42;;;;;;;7.32;6.00;;;27.70;75.70;;;;;;6130147;28;80889;-59
2023/08/19 09:49:43;;;;;;;6.18;5.57;;;27.70;75.20;;;;;;6127263;28;81068;-71
2023/08/19 09:52:44;;;;;;;7.28;6.32;;;27.80;75.00;;;;;;6103615;28;83716;-73
2023/08/19 09:55:44;;;;;;;8.32;5.97;;;27.80;75.30;;;;;;6118282;28;80394;-72
2023/08/19 09:58:45;;;;;;;7.03;5.93;;;27.80;74.50;;;;;;6119027;28;80308;-70
2023/08/19 10:01:45;;;;;;;10.88;6.70;;;27.90;74.00;;;;;;6111393;28;80486;-66
2023/08/19 10:04:48;;;;;;;11.15;7.00;;;27.90;74.00;;;;;;6116671;28;81313;-74
2023/08/19 10:07:48;;;;;;;13.90;7.65;;;27.90;74.00;;;;;;6116601;28;81735;-59
2023/08/19 10:10:49;;;;;;;10.23;6.80;;;27.90;73.70;;;;;;6112416;28;82473;-60
2023/08/19 10:13:49;;;;;;;8.88;6.55;;;27.90;73.90;;;;;;6129183;28;85860;-59
2023/08/19 10:16:50;;;;;;;8.80;7.43;;;27.70;73.20;;;;;;6143495;28;80880;-58
2023/08/19 10:19:50;;;;;;;10.50;6.60;;;27.50;69.30;;;;;;6130829;28;80364;-60
2023/08/19 10:22:51;;;;;;;7.85;6.22;;;27.20;66.60;;;;;;6127080;28;81567;-61
2023/08/19 10:25:51;;;;;;;8.60;6.30;;;27.00;65.10;;;;;;6128565;28;80890;-60
2023/08/19 10:28:55;;;;;;;11.35;6.93;;;26.80;64.10;;;;;;6125920;28;80436;-61
2023/08/19 10:31:55;;;;;;;13.57;7.22;;;26.60;65.00;;;;;;6121892;28;81338;-60
2023/08/19 10:34:56;;;;;;;11.52;6.65;;;26.50;64.20;;;;;;6132139;28;80903;-59
2023/08/19 10:37:56;;;;;;;10.20;6.90;;;26.30;62.90;;;;;;6127317;28;81175;-58
2023/08/19 10:40:57;;;;;;;10.35;5.70;;;26.30;64.10;;;;;;6129648;28;80909;-59
2023/08/19 10:43:58;;;;;;;6.35;4.78;;;26.30;63.90;;;;;;6116657;28;80482;-60
2023/08/19 10:46:58;;;;;;;6.90;5.18;;;26.70;65.40;;;;;;6127943;28;80398;-59
2023/08/19 10:49:59;;;;;;;6.30;4.95;;;27.10;65.30;;;;;;6128407;28;80989;-59
2023/08/19 10:52:59;;;;;;;8.52;4.93;;;27.20;65.10;;;;;;6116534;28;87168;-58
2023/08/19 10:56:00;;;;;;;7.55;5.60;;;27.20;66.10;;;;;;6128926;28;80965;-59
2023/08/19 10:59:03;;;;;;;7.22;5.55;;;27.30;67.40;;;;;;6127749;28;81044;-60
2023/08/19 11:02:04;;;;;;;5.60;5.05;;;27.40;67.60;;;;;;6126577;28;82227;-70
2023/08/19 11:05:05;;;;;;;10.75;6.13;;;27.50;68.20;;;;;;6128302;28;80310;-67
2023/08/19 11:08:06;;;;;;;8.90;5.97;;;27.60;68.00;;;;;;6120783;28;82421;-70
2023/08/19 11:11:07;;;;;;;6.32;5.72;;;27.70;68.30;;;;;;6125158;28;80273;-68
2023/08/19 11:14:07;;;;;;;10.25;5.95;;;27.80;69.20;;;;;;6115335;28;80281;-69
2023/08/19 11:17:08;;;;;;;13.55;5.90;;;27.80;69.20;;;;;;6128878;28;80323;-66
2023/08/19 11:20:11;;;;;;;9.48;6.07;;;27.90;68.60;;;;;;6129144;28;81763;-60
2023/08/19 11:23:12;;;;;;;9.80;5.85;;;28.40;66.10;;;;;;6116300;28;80445;-59
2023/08/19 11:26:12;;;;;;;7.60;5.60;;;28.70;64.60;;;;;;6127524;28;81129;-58
2023/08/19 11:29:13;;;;;;;9.75;6.85;;;28.90;64.40;;;;;;6119099;28;81686;-58
2023/08/19 11:32:14;;;;;;;10.75;6.60;;;28.70;65.30;;;;;;6124800;28;80817;-57
2023/08/19 11:35:14;;;;;;;13.82;6.60;;;28.10;63.50;;;;;;6136720;28;82800;-60
2023/08/19 11:38:15;;;;;;;13.38;6.82;;;27.70;62.00;;;;;;6130614;28;80479;-60
2023/08/19 11:41:15;;;;;;;9.20;6.25;;;27.30;61.40;;;;;;6133242;28;80237;-58
2023/08/19 11:44:16;;;;;;;12.40;6.47;;;27.10;61.00;;;;;;6115426;28;80595;-59
2023/08/19 11:47:16;;;;;;;10.27;6.78;;;26.90;61.90;;;;;;6110613;28;80380;-62
2023/08/19 11:50:17;;;;;;;11.52;6.18;;;26.80;65.20;;;;;;6106748;28;84215;-60
2023/08/19 11:53:17;;;;;;;6.82;5.97;;;27.10;65.70;;;;;;6115120;28;80167;-61
2023/08/19 11:56:18;;;;;;;12.70;7.00;;;27.40;65.90;;;;;;6114910;28;80731;-70
2023/08/19 11:59:18;;;;;;;10.23;6.38;;;27.50;68.10;;;;;;6112685;28;81565;-71
2023/08/19 12:02:19;;;;;;;8.95;6.13;;;27.50;68.60;;;;;;6115431;28;81088;-70
2023/08/19 12:05:19;;;;;;;7.82;6.53;;;27.60;69.80;;;;;;6128262;28;81426;-72
2023/08/19 12:08:20;;;;;;;9.68;5.97;;;27.70;69.80;;;;;;6140442;28;81185;-67
2023/08/19 12:11:20;;;;;;;7.82;6.55;;;27.80;69.10;;;;;;6121959;28;83704;-66
2023/08/19 12:14:21;;;;;;;7.57;5.75;;;27.90;69.00;;;;;;6128512;28;80981;-62
2023/08/19 12:17:21;;;;;;;9.57;5.93;;;28.00;68.50;;;;;;6125085;28;82250;-63
2023/08/19 12:20:22;;;;;;;14.95;6.13;;;28.10;68.60;;;;;;6136050;28;80827;-63
2023/08/19 12:23:23;;;;;;;10.07;5.82;;;28.10;67.80;;;;;;6136847;28;80730;-62
2023/08/19 12:26:23;;;;;;;8.48;6.32;;;28.20;66.20;;;;;;6147292;28;81941;-61
2023/08/19 12:29:24;;;;;;;7.43;5.60;;;28.30;65.00;;;;;;6124821;28;81530;-63
2023/08/19 12:32:24;;;;;;;7.10;5.80;;;28.30;65.40;;;;;;6131739;28;81855;-62
2023/08/19 12:35:25;;;;;;;5.93;5.32;;;28.40;66.40;;;;;;6132699;28;83271;-63
2023/08/19 12:38:25;;;;;;;6.35;5.75;;;28.40;66.10;;;;;;6127185;28;80566;-63
2023/08/19 12:41:26;;;;;;;7.88;5.93;;;28.40;66.50;;;;;;6135534;28;80358;-63
2023/08/19 12:44:26;;;;;;;9.35;6.22;;;28.40;66.60;;;;;;6109082;28;84037;-63
2023/08/19 12:47:27;;;;;;;7.72;6.82;;;28.50;65.30;;;;;;6119258;28;80585;-63
2023/08/19 12:50:27;;;;;;;7.00;5.82;;;28.50;66.60;;;;;;6119010;28;80571;-63
2023/08/19 12:53:28;;;;;;;9.10;5.30;;;28.50;64.70;;;;;;6115223;28;83512;-63
2023/08/19 12:56:28;;;;;;;7.75;6.10;;;28.60;65.20;;;;;;6122663;28;80369;-63
2023/08/19 12:59:29;;;;;;;8.40;5.93;;;28.60;64.50;;;;;;6121497;28;80704;-62
2023/08/19 13:02:29;;;;;;;7.00;5.85;;;28.60;64.90;;;;;;6109162;28;80772;-62
2023/08/19 13:05:30;;;;;;;8.20;5.57;;;28.60;66.50;;;;;;6136144;28;82897;-64
2023/08/19 13:08:30;;;;;;;7.43;6.45;;;28.60;66.90;;;;;;6129513;28;80581;-63
2023/08/19 13:11:31;;;;;;;9.40;6.68;;;28.60;65.90;;;;;;6129608;28;81375;-63
2023/08/19 13:14:32;;;;;;;10.05;7.53;;;28.70;66.60;;;;;;6132991;28;80734;-64
2023/08/19 13:17:32;;;;;;;17.27;8.70;;;28.70;66.80;;;;;;6133095;28;81434;-62
2023/08/19 13:20:33;;;;;;;11.85;8.90;;;28.70;67.40;;;;;;6132544;28;80842;-63
2023/08/19 13:23:33;;;;;;;17.27;10.27;;;28.70;67.90;;;;;;6134754;28;83487;-61
2023/08/19 13:26:34;;;;;;;35.03;14.20;;;28.60;68.60;;;;;;6125423;28;84331;-61
2023/08/19 13:29:34;;;;;;;29.00;13.38;;;28.70;69.70;;;;;;6127362;28;85923;-62
2023/08/19 13:33:02;;;;;;;32.25;14.65;;;28.70;70.20;;;;;;6119021;28;86632;-61
2023/08/19 13:36:03;;;;;;;37.17;15.43;;;28.60;70.60;;;;;;6127248;28;83389;-64
2023/08/19 13:39:03;;;;;;;40.33;16.63;;;28.50;68.50;;;;;;6122439;28;83221;-66
2023/08/19 13:42:04;;;;;;;37.33;17.55;;;28.10;65.60;;;;;;6124554;28;83027;-66
2023/08/19 13:45:04;;;;;;;26.48;14.68;;;27.80;63.80;;;;;;6120062;28;86261;-67
2023/08/19 13:48:05;;;;;;;31.58;14.07;;;27.50;62.80;;;;;;6125018;28;82871;-64
2023/08/19 13:51:06;;;;;;;26.38;12.90;;;27.30;61.90;;;;;;6125967;28;86103;-65
2023/08/19 13:54:07;;;;;;;22.65;11.77;;;27.20;61.50;;;;;;6125504;28;83569;-64
2023/08/19 13:57:07;;;;;;;21.00;11.10;;;27.00;61.10;;;;;;6108500;28;88566;-66
2023/08/19 14:00:10;;;;;;;19.45;10.98;;;26.90;61.10;;;;;;6120836;28;82945;-65
2023/08/19 14:03:11;;;;;;;21.40;9.60;;;26.80;60.90;;;;;;6110316;28;89354;-62
2023/08/19 14:06:11;;;;;;;14.73;7.78;;;26.80;61.30;;;;;;6116854;28;84188;-59
2023/08/19 14:09:12;;;;;;;14.98;8.73;;;26.80;66.00;;;;;;6126085;28;81539;-58
2023/08/19 14:12:12;;;;;;;12.13;8.73;;;27.10;69.70;;;;;;6127631;28;81720;-55
2023/08/19 14:15:13;;;;;;;15.05;8.82;;;27.30;70.50;;;;;;6129251;28;81689;-58
2023/08/19 14:18:13;;;;;;;11.90;8.02;;;27.40;70.60;;;;;;6131446;28;83478;-56
2023/08/19 14:21:14;;;;;;;11.38;7.97;;;27.60;72.50;;;;;;6126827;28;81722;-57
2023/08/19 14:24:14;;;;;;;10.68;8.18;;;27.70;73.30;;;;;;6127509;28;81351;-66
2023/08/19 14:27:16;;;;;;;11.20;7.85;;;27.70;73.20;;;;;;6124486;28;82959;-63
2023/08/19 14:30:17;;;;;;;10.65;8.00;;;27.80;73.60;;;;;;6128601;28;82059;-65
2023/08/19 14:33:17;;;;;;;11.02;7.78;;;27.90;73.50;;;;;;6130297;28;83859;-67
2023/08/19 14:36:18;;;;;;;8.98;7.57;;;27.90;73.50;;;;;;6133152;28;80617;-66
2023/08/19 14:39:18;;;;;;;14.00;8.35;;;28.00;73.90;;;;;;6122700;28;80807;-60
2023/08/19 14:42:19;;;;;;;11.05;8.38;;;28.10;73.80;;;;;;6122635;28;81222;-67
2023/08/19 14:45:20;;;;;;;9.82;7.65;;;28.20;73.30;;;;;;6147609;28;80805;-73
2023/08/19 14:48:20;;;;;;;7.90;7.10;;;28.20;73.10;;;;;;6130046;28;80467;-71
2023/08/19 14:51:21;;;;;;;12.20;6.88;;;28.30;72.40;;;;;;6124125;28;80788;-68
2023/08/19 14:54:21;;;;;;;7.80;6.85;;;28.40;72.60;;;;;;6115038;28;80610;-73
2023/08/19 14:57:22;;;;;;;11.45;6.80;;;28.40;71.70;;;;;;6118918;28;80686;-73
2023/08/19 15:00:22;;;;;;;9.90;7.50;;;28.40;73.00;;;;;;6137732;28;80550;-63
2023/08/19 15:03:23;;;;;;;11.70;8.55;;;28.50;73.30;;;;;;6134838;28;80328;-69
2023/08/19 15:06:24;;;;;;;10.70;8.35;;;28.50;73.80;;;;;;6126753;28;80392;-74
2023/08/19 15:09:24;;;;;;;9.00;7.22;;;28.50;75.10;;;;;;6126174;28;80969;-67
2023/08/19 15:12:25;;;;;;;7.97;7.18;;;28.50;75.50;;;;;;6124373;28;80084;-69
2023/08/19 15:15:25;;;;;;;11.15;7.50;;;28.50;75.60;;;;;;6105578;28;81232;-66
2023/08/19 15:18:26;;;;;;;11.40;7.53;;;28.50;75.50;;;;;;6125112;28;80249;-68
2023/08/19 15:21:26;;;;;;;8.80;7.32;;;28.50;75.40;;;;;;6134423;28;80479;-67
2023/08/19 15:24:27;;;;;;;9.32;7.70;;;28.50;74.80;;;;;;6140030;28;81843;-69
2023/08/19 15:27:27;;;;;;;12.07;7.10;;;28.50;74.90;;;;;;6134739;28;80580;-66
2023/08/19 15:30:28;;;;;;;10.02;7.97;;;28.50;75.60;;;;;;6127817;28;80594;-66
2023/08/19 15:33:28;;;;;;;11.40;7.22;;;28.50;75.50;;;;;;6133618;28;81538;-67